Time;durP1;ratioP1;P1;durP2;ratioP2;P2;SDS_P1;SDS_P2;PMS_P1;PMS_P2;Temp;Humidity;BMP_temperature;BMP_pressure;BME280_temperature;BME280_humidity;BME280_pressure;Samples;Min_cycle;Max_cycle;Signal;HPM_P1;HPM_P2
2023/05/18 00:00:22;;;;;;;8.73;3.03;;;;;;;;;;613815;23;1057;-79
2023/05/18 00:00:38;;;;;;;8.77;3.08;;;;;;;;;;617646;23;1195;-78
2023/05/18 00:00:54;;;;;;;8.47;3.10;;;;;;;;;;613912;23;1241;-78
2023/05/18 00:01:13;;;;;;;8.20;2.95;;;;;;;;;;613111;23;872;-80
2023/05/18 00:01:29;;;;;;;8.15;3.00;;;;;;;;;;618308;23;872;-79
2023/05/18 00:01:45;;;;;;;6.57;2.85;;;;;;;;;;621376;23;1013;-78
2023/05/18 00:02:04;;;;;;;6.05;2.72;;;;;;;;;;619176;23;1383;-80
2023/05/18 00:02:20;;;;;;;5.93;2.70;;;;;;;;;;612562;23;1322;-79
2023/05/18 00:02:47;;;;;;;7.35;2.78;;;;;;;;;;619978;23;816;-80
2023/05/18 00:03:14;;;;;;;7.05;2.65;;;;;;;;;;617298;23;1436;-78
2023/05/18 00:03:33;;;;;;;8.25;2.90;;;;;;;;;;615322;23;1268;-78
2023/05/18 00:03:49;;;;;;;7.15;3.00;;;;;;;;;;618480;23;895;-80
2023/05/18 00:04:15;;;;;;;7.27;2.90;;;;;;;;;;619331;23;1254;-79
2023/05/18 00:04:34;;;;;;;9.23;3.35;;;;;;;;;;623365;23;895;-80
2023/05/18 00:04:52;;;;;;;8.85;3.30;;;;;;;;;;622198;23;1324;-79
2023/05/18 00:05:19;;;;;;;9.15;3.10;;;;;;;;;;619258;23;1383;-79
2023/05/18 00:05:35;;;;;;;9.75;3.30;;;;;;;;;;623658;23;918;-79
2023/05/18 00:05:51;;;;;;;9.43;3.22;;;;;;;;;;622551;23;1337;-79
2023/05/18 00:06:16;;;;;;;8.40;3.00;;;;;;;;;;618298;23;1147;-78
2023/05/18 00:06:32;;;;;;;7.68;3.00;;;;;;;;;;619910;23;1162;-77
2023/05/18 00:06:48;;;;;;;7.35;2.92;;;;;;;;;;618928;23;1254;-79
2023/05/18 00:07:28;;;;;;;9.32;3.17;;;;;;;;;;622893;23;871;-79
2023/05/18 00:07:48;;;;;;;8.38;3.10;;;;;;;;;;625264;23;883;-78
2023/05/18 00:08:24;;;;;;;7.97;3.10;;;;;;;;;;622048;23;1260;-80
2023/05/18 00:08:40;;;;;;;7.75;2.90;;;;;;;;;;625540;23;1202;-78
2023/05/18 00:09:07;;;;;;;8.73;2.97;;;;;;;;;;627006;23;1185;-78
2023/05/18 00:09:27;;;;;;;9.02;3.45;;;;;;;;;;622366;23;1052;-77
2023/05/18 00:09:42;;;;;;;8.38;3.08;;;;;;;;;;622982;23;1021;-78
2023/05/18 00:09:59;;;;;;;8.43;2.90;;;;;;;;;;620428;23;1285;-78
2023/05/18 00:10:15;;;;;;;6.57;2.88;;;;;;;;;;612127;23;1474;-77
2023/05/18 00:10:39;;;;;;;7.40;2.90;;;;;;;;;;615756;23;1334;-78
2023/05/18 00:10:55;;;;;;;7.50;2.88;;;;;;;;;;616697;23;1405;-78
2023/05/18 00:11:16;;;;;;;8.00;3.10;;;;;;;;;;613501;23;796;-79
2023/05/18 00:11:39;;;;;;;8.65;3.17;;;;;;;;;;616310;23;1144;-79
2023/05/18 00:12:03;;;;;;;8.77;2.90;;;;;;;;;;617451;23;1404;-78
2023/05/18 00:12:26;;;;;;;8.95;3.20;;;;;;;;;;611144;23;1151;-79
2023/05/18 00:12:42;;;;;;;9.68;3.10;;;;;;;;;;621196;23;1458;-78
2023/05/18 00:13:08;;;;;;;9.15;3.10;;;;;;;;;;617361;23;1265;-78
2023/05/18 00:13:24;;;;;;;5.80;2.83;;;;;;;;;;618279;23;1166;-79
2023/05/18 00:14:20;;;;;;;7.23;3.17;;;;;;;;;;613173;23;1211;-78
2023/05/18 00:14:36;;;;;;;9.18;3.40;;;;;;;;;;612919;23;1306;-78
2023/05/18 00:14:57;;;;;;;8.73;3.27;;;;;;;;;;616473;23;1345;-78
2023/05/18 00:15:23;;;;;;;8.63;3.10;;;;;;;;;;608957;23;1238;-80
2023/05/18 00:16:20;;;;;;;7.90;3.20;;;;;;;;;;620476;23;1162;-79
2023/05/18 00:16:36;;;;;;;6.15;2.80;;;;;;;;;;619741;23;1512;-78
2023/05/18 00:16:52;;;;;;;7.10;3.00;;;;;;;;;;618527;23;1241;-79
2023/05/18 00:17:14;;;;;;;7.63;3.10;;;;;;;;;;616052;23;1494;-79
2023/05/18 00:17:30;;;;;;;6.68;2.85;;;;;;;;;;619121;23;1214;-80
2023/05/18 00:17:52;;;;;;;7.78;2.80;;;;;;;;;;619181;23;1316;-79
2023/05/18 00:18:13;;;;;;;10.77;3.00;;;;;;;;;;615653;23;840;-80
2023/05/18 00:18:29;;;;;;;8.20;2.90;;;;;;;;;;617792;23;1186;-78
2023/05/18 00:18:50;;;;;;;7.55;3.10;;;;;;;;;;617465;23;1542;-79
2023/05/18 00:19:19;;;;;;;6.70;2.85;;;;;;;;;;614518;23;1882;-80
2023/05/18 00:19:57;;;;;;;9.10;3.20;;;;;;;;;;622160;23;1439;-80
2023/05/18 00:20:14;;;;;;;7.15;2.88;;;;;;;;;;613276;23;1547;-80
2023/05/18 00:20:38;;;;;;;7.32;2.90;;;;;;;;;;622842;23;1582;-79
2023/05/18 00:20:59;;;;;;;6.95;2.92;;;;;;;;;;618286;23;1499;-79
2023/05/18 00:21:29;;;;;;;6.82;2.90;;;;;;;;;;612362;23;1123;-79
2023/05/18 00:21:49;;;;;;;7.65;2.83;;;;;;;;;;616486;23;1233;-79
2023/05/18 00:22:18;;;;;;;7.63;2.90;;;;;;;;;;611571;23;1921;-78
2023/05/18 00:22:34;;;;;;;7.32;3.10;;;;;;;;;;615120;23;1297;-79
2023/05/18 00:22:53;;;;;;;8.27;3.15;;;;;;;;;;616582;23;1251;-79
2023/05/18 00:23:15;;;;;;;7.65;3.03;;;;;;;;;;614047;23;1475;-80
2023/05/18 00:23:31;;;;;;;8.10;3.10;;;;;;;;;;616255;23;1320;-78
2023/05/18 00:23:57;;;;;;;6.97;2.90;;;;;;;;;;618935;23;1248;-78
2023/05/18 00:24:19;;;;;;;8.52;3.03;;;;;;;;;;609265;23;1164;-80
2023/05/18 00:24:35;;;;;;;7.65;3.00;;;;;;;;;;615372;23;848;-79
2023/05/18 00:24:51;;;;;;;7.45;3.28;;;;;;;;;;614775;23;1338;-78
2023/05/18 00:25:15;;;;;;;7.85;3.20;;;;;;;;;;612130;23;1032;-80
2023/05/18 00:25:31;;;;;;;9.50;3.00;;;;;;;;;;609767;23;1195;-77
2023/05/18 00:25:50;;;;;;;8.00;2.83;;;;;;;;;;614253;23;1242;-79
2023/05/18 00:26:14;;;;;;;7.28;2.97;;;;;;;;;;612071;23;1275;-78
2023/05/18 00:26:47;;;;;;;7.63;3.08;;;;;;;;;;612954;24;1289;-79
2023/05/18 00:27:13;;;;;;;8.15;3.00;;;;;;;;;;615258;23;1351;-79
2023/05/18 00:27:34;;;;;;;6.57;2.80;;;;;;;;;;622472;23;777;-79
2023/05/18 00:27:53;;;;;;;7.20;2.95;;;;;;;;;;623455;23;1505;-78
2023/05/18 00:28:31;;;;;;;8.07;3.00;;;;;;;;;;620456;23;908;-80
2023/05/18 00:28:47;;;;;;;7.32;2.90;;;;;;;;;;622583;23;1162;-79
2023/05/18 00:29:11;;;;;;;7.97;3.13;;;;;;;;;;619382;23;1316;-79
2023/05/18 00:29:27;;;;;;;8.38;3.20;;;;;;;;;;624691;23;1244;-79
2023/05/18 00:29:42;;;;;;;8.17;3.10;;;;;;;;;;624671;23;954;-79
2023/05/18 00:29:58;;;;;;;9.15;3.05;;;;;;;;;;623743;23;1223;-78
2023/05/18 00:30:22;;;;;;;8.73;3.20;;;;;;;;;;619829;23;1383;-78
2023/05/18 00:30:38;;;;;;;9.35;3.30;;;;;;;;;;624986;23;1365;-78
2023/05/18 00:30:59;;;;;;;9.82;3.40;;;;;;;;;;624226;23;1216;-78
2023/05/18 00:31:16;;;;;;;9.27;3.20;;;;;;;;;;618710;23;1329;-79
2023/05/18 00:31:37;;;;;;;9.13;3.17;;;;;;;;;;619601;23;1500;-77
2023/05/18 00:31:55;;;;;;;9.32;3.00;;;;;;;;;;616033;23;1352;-78
2023/05/18 00:32:14;;;;;;;7.80;2.90;;;;;;;;;;613644;23;1153;-79
2023/05/18 00:32:33;;;;;;;7.65;2.92;;;;;;;;;;613091;23;1383;-77
2023/05/18 00:32:49;;;;;;;7.88;3.17;;;;;;;;;;613811;23;1312;-78
2023/05/18 00:33:16;;;;;;;7.55;3.20;;;;;;;;;;614011;23;1258;-79
2023/05/18 00:33:32;;;;;;;7.28;3.13;;;;;;;;;;617571;23;1476;-79
2023/05/18 00:33:51;;;;;;;8.82;3.40;;;;;;;;;;619036;23;859;-78
2023/05/18 00:34:19;;;;;;;9.18;3.42;;;;;;;;;;615634;23;1332;-79
2023/05/18 00:34:35;;;;;;;10.07;3.40;;;;;;;;;;617311;23;1462;-78
2023/05/18 00:34:56;;;;;;;9.20;3.33;;;;;;;;;;616273;23;883;-78
2023/05/18 00:35:21;;;;;;;8.23;3.25;;;;;;;;;;614346;23;1304;-78
2023/05/18 00:35:37;;;;;;;8.65;3.20;;;;;;;;;;623614;23;882;-78
2023/05/18 00:35:59;;;;;;;9.13;3.33;;;;;;;;;;621378;23;1463;-78
2023/05/18 00:36:15;;;;;;;9.45;3.30;;;;;;;;;;619880;23;899;-77
2023/05/18 00:36:32;;;;;;;8.20;3.20;;;;;;;;;;625678;23;1311;-78
2023/05/18 00:36:53;;;;;;;8.65;3.40;;;;;;;;;;626357;23;1473;-81
2023/05/18 00:37:10;;;;;;;9.00;3.20;;;;;;;;;;622978;23;816;-78
2023/05/18 00:37:26;;;;;;;8.90;3.40;;;;;;;;;;621767;23;1145;-80
2023/05/18 00:37:41;;;;;;;8.38;3.42;;;;;;;;;;626106;23;1261;-78
2023/05/18 00:38:14;;;;;;;7.80;3.47;;;;;;;;;;622797;23;1218;-78
2023/05/18 00:38:29;;;;;;;8.35;3.35;;;;;;;;;;622616;23;915;-78
2023/05/18 00:38:45;;;;;;;7.43;3.33;;;;;;;;;;623078;23;875;-78
2023/05/18 00:39:13;;;;;;;8.20;3.10;;;;;;;;;;624525;23;1498;-77
2023/05/18 00:39:32;;;;;;;7.43;3.20;;;;;;;;;;619606;23;1146;-77
2023/05/18 00:39:51;;;;;;;8.55;3.20;;;;;;;;;;620305;23;1461;-78
2023/05/18 00:40:18;;;;;;;9.80;3.15;;;;;;;;;;620313;23;844;-79
2023/05/18 00:40:36;;;;;;;9.15;3.17;;;;;;;;;;626617;23;1333;-78
2023/05/18 00:40:52;;;;;;;8.35;3.20;;;;;;;;;;623509;23;1337;-77
2023/05/18 00:41:22;;;;;;;8.40;3.27;;;;;;;;;;616849;23;1605;-78
2023/05/18 00:41:41;;;;;;;7.55;3.10;;;;;;;;;;618780;23;877;-78
2023/05/18 00:42:14;;;;;;;7.40;3.10;;;;;;;;;;618045;23;1364;-79
2023/05/18 00:42:50;;;;;;;9.35;3.38;;;;;;;;;;619841;23;1313;-79
2023/05/18 00:43:32;;;;;;;8.40;3.20;;;;;;;;;;619510;23;1332;-80
2023/05/18 00:43:50;;;;;;;7.53;3.25;;;;;;;;;;619070;23;1480;-77
2023/05/18 00:44:32;;;;;;;8.55;3.35;;;;;;;;;;614291;23;1107;-78
2023/05/18 00:44:51;;;;;;;8.68;3.28;;;;;;;;;;617197;23;1415;-77
2023/05/18 00:45:12;;;;;;;9.55;3.40;;;;;;;;;;619035;23;1381;-78
2023/05/18 00:45:28;;;;;;;9.88;3.28;;;;;;;;;;620847;23;1313;-79
2023/05/18 00:45:50;;;;;;;9.48;3.30;;;;;;;;;;623998;23;1230;-79
2023/05/18 00:46:21;;;;;;;9.35;3.28;;;;;;;;;;621795;23;1202;-78
2023/05/18 00:46:37;;;;;;;9.70;3.22;;;;;;;;;;618397;23;1409;-78
2023/05/18 00:46:52;;;;;;;8.53;3.40;;;;;;;;;;619402;23;1315;-79
2023/05/18 00:47:20;;;;;;;8.95;3.28;;;;;;;;;;614533;23;1189;-79
2023/05/18 00:47:38;;;;;;;11.87;3.13;;;;;;;;;;617920;23;1436;-77
2023/05/18 00:48:32;;;;;;;11.02;3.45;;;;;;;;;;617766;23;1485;-79
2023/05/18 00:48:39;;;;;;;10.93;3.35;;;;;;;;;;617865;23;1004;-80
2023/05/18 00:49:00;;;;;;;9.10;3.30;;;;;;;;;;628924;23;1068;-79
2023/05/18 00:49:16;;;;;;;7.82;3.15;;;;;;;;;;618490;23;1266;-78
2023/05/18 00:49:35;;;;;;;7.40;3.20;;;;;;;;;;622285;23;1325;-79
2023/05/18 00:50:17;;;;;;;7.78;3.00;;;;;;;;;;625110;23;1235;-79
2023/05/18 00:50:38;;;;;;;6.72;3.05;;;;;;;;;;620500;23;931;-81
2023/05/18 00:50:54;;;;;;;7.57;2.97;;;;;;;;;;621178;23;1352;-78
2023/05/18 00:51:30;;;;;;;8.27;3.10;;;;;;;;;;614982;23;1322;-80
2023/05/18 00:51:47;;;;;;;6.57;3.05;;;;;;;;;;620378;23;929;-78
2023/05/18 00:52:08;;;;;;;8.10;3.20;;;;;;;;;;621565;23;1083;-78
2023/05/18 00:52:25;;;;;;;8.60;3.08;;;;;;;;;;618136;23;1107;-78
2023/05/18 00:52:41;;;;;;;7.50;3.00;;;;;;;;;;616783;23;1455;-78
2023/05/18 00:52:57;;;;;;;6.60;3.00;;;;;;;;;;617190;23;1451;-78
2023/05/18 00:53:22;;;;;;;7.45;3.10;;;;;;;;;;611682;23;1253;-79
2023/05/18 00:53:45;;;;;;;6.93;2.70;;;;;;;;;;618245;23;860;-78
2023/05/18 00:54:02;;;;;;;6.85;2.92;;;;;;;;;;616649;23;1431;-78
2023/05/18 00:54:18;;;;;;;7.15;2.90;;;;;;;;;;609722;23;1272;-79
2023/05/18 00:54:37;;;;;;;8.15;2.92;;;;;;;;;;617569;23;1152;-77
2023/05/18 00:54:53;;;;;;;9.10;3.10;;;;;;;;;;618683;23;1261;-79
2023/05/18 00:55:14;;;;;;;8.90;3.15;;;;;;;;;;615313;23;1693;-79
2023/05/18 00:55:33;;;;;;;9.15;3.13;;;;;;;;;;617948;23;1179;-79
2023/05/18 00:55:48;;;;;;;8.38;2.90;;;;;;;;;;619579;23;1432;-79
2023/05/18 00:56:14;;;;;;;9.85;3.10;;;;;;;;;;618020;23;1265;-79
2023/05/18 00:56:32;;;;;;;8.75;3.30;;;;;;;;;;616166;23;1308;-78
2023/05/18 00:56:54;;;;;;;7.82;2.83;;;;;;;;;;613342;23;1320;-78
2023/05/18 00:57:13;;;;;;;8.50;2.92;;;;;;;;;;615009;23;788;-79
2023/05/18 00:57:32;;;;;;;8.80;3.05;;;;;;;;;;615335;23;1463;-78
2023/05/18 00:57:48;;;;;;;7.53;3.00;;;;;;;;;;616854;23;1369;-78
2023/05/18 00:58:09;;;;;;;8.00;3.15;;;;;;;;;;617772;23;829;-79
2023/05/18 00:58:28;;;;;;;10.20;3.00;;;;;;;;;;614216;23;1167;-80
2023/05/18 00:58:44;;;;;;;8.68;2.90;;;;;;;;;;618768;23;1391;-78
2023/05/18 00:59:14;;;;;;;7.93;2.95;;;;;;;;;;617154;23;1387;-79
2023/05/18 00:59:31;;;;;;;8.38;3.03;;;;;;;;;;621163;23;865;-77
2023/05/18 00:59:48;;;;;;;7.40;3.00;;;;;;;;;;616889;23;1401;-77
2023/05/18 01:00:12;;;;;;;8.20;3.08;;;;;;;;;;616978;23;1467;-78
2023/05/18 01:00:36;;;;;;;8.07;2.95;;;;;;;;;;614923;23;1292;-78
2023/05/18 01:00:57;;;;;;;8.27;3.13;;;;;;;;;;620052;23;1355;-79
2023/05/18 01:01:18;;;;;;;9.77;3.10;;;;;;;;;;613259;23;1115;-79
2023/05/18 01:01:35;;;;;;;8.90;2.92;;;;;;;;;;618779;23;939;-78
2023/05/18 01:01:50;;;;;;;7.10;2.72;;;;;;;;;;619915;23;1383;-78
2023/05/18 01:02:19;;;;;;;7.37;2.80;;;;;;;;;;616471;23;824;-79
2023/05/18 01:02:41;;;;;;;8.02;2.95;;;;;;;;;;621633;23;894;-79
2023/05/18 01:03:00;;;;;;;6.32;2.78;;;;;;;;;;617203;23;1134;-77
2023/05/18 01:03:19;;;;;;;5.93;2.60;;;;;;;;;;609731;23;1108;-77
2023/05/18 01:03:42;;;;;;;7.45;2.80;;;;;;;;;;618625;23;1383;-78
2023/05/18 01:04:09;;;;;;;7.60;2.97;;;;;;;;;;614525;23;1091;-79
2023/05/18 01:04:30;;;;;;;9.45;3.10;;;;;;;;;;616568;23;1563;-79
2023/05/18 01:04:46;;;;;;;8.93;3.00;;;;;;;;;;614650;23;1243;-78
2023/05/18 01:05:18;;;;;;;7.07;2.67;;;;;;;;;;619154;23;1110;-78
2023/05/18 01:05:37;;;;;;;8.38;3.03;;;;;;;;;;622601;23;911;-78
2023/05/18 01:05:56;;;;;;;6.35;2.60;;;;;;;;;;622858;23;1355;-78
2023/05/18 01:06:17;;;;;;;6.38;2.70;;;;;;;;;;614919;23;1313;-77
2023/05/18 01:06:36;;;;;;;8.23;2.97;;;;;;;;;;619144;23;1176;-79
2023/05/18 01:06:55;;;;;;;9.70;2.97;;;;;;;;;;622649;23;1448;-79
2023/05/18 01:07:17;;;;;;;8.25;2.70;;;;;;;;;;612999;23;1170;-79
2023/05/18 01:07:41;;;;;;;7.40;2.75;;;;;;;;;;615231;23;1268;-78
2023/05/18 01:07:57;;;;;;;9.02;2.90;;;;;;;;;;614773;23;1381;-78
2023/05/18 01:08:15;;;;;;;9.38;3.10;;;;;;;;;;610775;23;1009;-78
2023/05/18 01:08:35;;;;;;;7.75;3.08;;;;;;;;;;618051;23;1415;-77
2023/05/18 01:08:53;;;;;;;8.27;2.95;;;;;;;;;;614078;23;1259;-78
2023/05/18 01:09:17;;;;;;;9.18;3.00;;;;;;;;;;609670;23;1238;-79
2023/05/18 01:09:36;;;;;;;8.50;2.95;;;;;;;;;;615017;23;1532;-77
2023/05/18 01:09:53;;;;;;;6.88;2.83;;;;;;;;;;617235;23;1436;-77
2023/05/18 01:10:26;;;;;;;7.70;3.10;;;;;;;;;;613901;23;1288;-78
2023/05/18 01:10:47;;;;;;;9.05;3.00;;;;;;;;;;618098;23;1465;-78
2023/05/18 01:11:26;;;;;;;8.93;3.03;;;;;;;;;;619232;23;1061;-80
2023/05/18 01:12:00;;;;;;;9.20;3.20;;;;;;;;;;620678;23;1402;-79
2023/05/18 01:12:35;;;;;;;8.38;3.00;;;;;;;;;;609603;23;1274;-78
2023/05/18 01:13:13;;;;;;;7.70;2.90;;;;;;;;;;625429;23;1325;-78
2023/05/18 01:14:12;;;;;;;6.95;3.15;;;;;;;;;;619671;23;1459;-78
2023/05/18 01:14:48;;;;;;;8.95;3.00;;;;;;;;;;606460;24;1297;-78
2023/05/18 01:15:22;;;;;;;8.57;3.00;;;;;;;;;;606966;24;1197;-80
2023/05/18 01:15:40;;;;;;;8.23;3.03;;;;;;;;;;623115;23;1264;-78
2023/05/18 01:16:07;;;;;;;9.57;3.30;;;;;;;;;;619339;23;1136;-77
2023/05/18 01:17:18;;;;;;;7.65;2.90;;;;;;;;;;610948;23;1136;-80
2023/05/18 01:17:50;;;;;;;7.05;2.80;;;;;;;;;;611308;24;1486;-79
2023/05/18 01:18:53;;;;;;;8.25;3.05;;;;;;;;;;605664;24;1184;-78
2023/05/18 01:19:48;;;;;;;7.03;2.95;;;;;;;;;;600531;24;1542;-78
2023/05/18 01:20:44;;;;;;;8.27;3.20;;;;;;;;;;609680;24;1142;-80
2023/05/18 01:21:27;;;;;;;8.80;3.00;;;;;;;;;;612249;23;1179;-78
2023/05/18 01:22:25;;;;;;;7.85;3.10;;;;;;;;;;612225;24;1257;-78
2023/05/18 01:23:13;;;;;;;8.02;3.20;;;;;;;;;;615874;23;1254;-78
2023/05/18 01:23:53;;;;;;;8.13;3.20;;;;;;;;;;615996;23;1178;-78
2023/05/18 01:24:44;;;;;;;7.63;3.28;;;;;;;;;;620742;23;1232;-79
2023/05/18 01:25:28;;;;;;;7.55;3.30;;;;;;;;;;624259;23;876;-78
2023/05/18 01:25:49;;;;;;;8.05;3.30;;;;;;;;;;624692;23;1478;-78
2023/05/18 01:26:16;;;;;;;8.30;3.40;;;;;;;;;;618808;23;1330;-79
2023/05/18 01:26:40;;;;;;;8.20;3.30;;;;;;;;;;617619;23;1300;-78
2023/05/18 01:26:59;;;;;;;8.57;3.20;;;;;;;;;;618371;23;1264;-77
2023/05/18 01:27:24;;;;;;;7.55;3.10;;;;;;;;;;609929;23;1304;-77
2023/05/18 01:27:45;;;;;;;8.55;3.22;;;;;;;;;;620320;23;908;-78
2023/05/18 01:28:15;;;;;;;10.02;3.47;;;;;;;;;;621492;23;1134;-78
2023/05/18 01:28:32;;;;;;;7.82;3.05;;;;;;;;;;618705;23;1396;-78
2023/05/18 01:28:49;;;;;;;7.68;2.80;;;;;;;;;;619092;23;947;-78
2023/05/18 01:29:19;;;;;;;6.97;2.80;;;;;;;;;;617135;23;1465;-80
2023/05/18 01:29:39;;;;;;;7.78;2.90;;;;;;;;;;617498;23;896;-79
2023/05/18 01:29:55;;;;;;;8.10;3.20;;;;;;;;;;616748;23;960;-76
2023/05/18 01:30:20;;;;;;;9.13;3.30;;;;;;;;;;608899;23;1214;-78
2023/05/18 01:30:40;;;;;;;8.38;3.30;;;;;;;;;;618275;23;876;-79
2023/05/18 01:30:57;;;;;;;8.45;3.20;;;;;;;;;;620603;23;1427;-78
2023/05/18 01:31:14;;;;;;;10.35;3.30;;;;;;;;;;613816;23;848;-77
2023/05/18 01:31:30;;;;;;;9.32;3.13;;;;;;;;;;621708;23;1453;-79
2023/05/18 01:32:12;;;;;;;8.45;3.35;;;;;;;;;;620332;23;1339;-78
2023/05/18 01:32:27;;;;;;;9.98;3.20;;;;;;;;;;613941;23;1515;-78
2023/05/18 01:32:45;;;;;;;11.45;3.50;;;;;;;;;;616633;23;1351;-78
2023/05/18 01:33:13;;;;;;;12.25;3.50;;;;;;;;;;614300;23;1500;-78
2023/05/18 01:33:29;;;;;;;8.93;3.40;;;;;;;;;;616826;23;1093;-78
2023/05/18 01:33:45;;;;;;;8.37;3.23;;;;;;;;;;621816;23;1399;-78
2023/05/18 01:34:00;;;;;;;7.85;3.28;;;;;;;;;;621103;23;1192;-78
2023/05/18 01:34:16;;;;;;;7.38;3.47;;;;;;;;;;612836;23;1220;-77
2023/05/18 01:34:35;;;;;;;8.10;3.42;;;;;;;;;;620540;23;1324;-79
2023/05/18 01:34:51;;;;;;;8.63;3.28;;;;;;;;;;616699;23;1406;-78
2023/05/18 01:35:12;;;;;;;7.18;3.10;;;;;;;;;;610996;23;1090;-79
2023/05/18 01:35:31;;;;;;;8.48;3.20;;;;;;;;;;614360;23;1400;-78
2023/05/18 01:35:52;;;;;;;9.10;3.50;;;;;;;;;;614282;23;1442;-79
2023/05/18 01:36:13;;;;;;;7.60;3.10;;;;;;;;;;607446;24;1325;-79
2023/05/18 01:36:30;;;;;;;8.13;3.10;;;;;;;;;;614853;23;1262;-79
2023/05/18 01:36:46;;;;;;;7.95;3.33;;;;;;;;;;617305;23;1369;-78
2023/05/18 01:37:11;;;;;;;7.50;3.30;;;;;;;;;;618142;23;1283;-79
2023/05/18 01:37:26;;;;;;;10.45;3.25;;;;;;;;;;617058;23;899;-77
2023/05/18 01:38:00;;;;;;;10.45;3.33;;;;;;;;;;615792;23;1379;-78
2023/05/18 01:38:18;;;;;;;9.73;3.22;;;;;;;;;;610550;23;892;-76
2023/05/18 01:38:37;;;;;;;9.65;3.33;;;;;;;;;;620839;23;911;-78
2023/05/18 01:39:09;;;;;;;7.47;3.10;;;;;;;;;;620591;23;864;-77
2023/05/18 01:39:31;;;;;;;9.68;3.40;;;;;;;;;;618393;23;1164;-78
2023/05/18 01:40:00;;;;;;;8.95;3.70;;;;;;;;;;621144;23;982;-79
2023/05/18 01:40:15;;;;;;;9.38;3.20;;;;;;;;;;614203;23;1401;-78
2023/05/18 01:40:40;;;;;;;8.27;3.20;;;;;;;;;;621505;23;1332;-78
2023/05/18 01:41:30;;;;;;;7.25;3.10;;;;;;;;;;623920;23;1007;-79
2023/05/18 01:42:02;;;;;;;8.88;3.35;;;;;;;;;;612091;24;1349;-78
2023/05/18 01:42:27;;;;;;;8.70;3.10;;;;;;;;;;618060;23;1922;-79
2023/05/18 01:43:01;;;;;;;8.57;3.20;;;;;;;;;;628169;23;1287;-78
2023/05/18 01:43:35;;;;;;;8.50;3.30;;;;;;;;;;616080;23;1435;-80
2023/05/18 01:43:55;;;;;;;7.70;3.10;;;;;;;;;;626994;23;1378;-78
2023/05/18 01:44:36;;;;;;;9.55;3.28;;;;;;;;;;621050;23;1103;-80
2023/05/18 01:44:56;;;;;;;8.27;3.30;;;;;;;;;;620761;23;1348;-79
2023/05/18 01:45:26;;;;;;;8.05;3.20;;;;;;;;;;610639;23;1496;-79
2023/05/18 01:45:50;;;;;;;8.85;3.45;;;;;;;;;;616662;23;1406;-78
2023/05/18 01:47:00;;;;;;;10.05;3.33;;;;;;;;;;615041;23;2029;-80
2023/05/18 01:47:17;;;;;;;9.40;3.30;;;;;;;;;;604742;24;1333;-79
2023/05/18 01:47:36;;;;;;;9.60;3.30;;;;;;;;;;608832;23;923;-78
2023/05/18 01:48:15;;;;;;;9.07;3.33;;;;;;;;;;611945;24;1237;-78
2023/05/18 01:48:55;;;;;;;8.23;3.20;;;;;;;;;;609483;24;1497;-78
2023/05/18 01:49:41;;;;;;;8.15;3.40;;;;;;;;;;609198;23;1051;-80
2023/05/18 01:50:31;;;;;;;8.38;3.22;;;;;;;;;;615776;23;909;-79
2023/05/18 01:50:50;;;;;;;7.45;3.10;;;;;;;;;;618867;23;1270;-80
2023/05/18 01:51:18;;;;;;;7.57;3.25;;;;;;;;;;613322;23;1618;-79
2023/05/18 01:51:43;;;;;;;8.18;3.20;;;;;;;;;;615902;23;1050;-79
2023/05/18 01:52:10;;;;;;;8.57;3.10;;;;;;;;;;616231;23;1499;-79
2023/05/18 01:52:33;;;;;;;8.75;3.10;;;;;;;;;;611612;24;1116;-77
2023/05/18 01:53:24;;;;;;;7.43;3.20;;;;;;;;;;612401;24;856;-77
2023/05/18 01:54:07;;;;;;;9.38;3.45;;;;;;;;;;615191;23;1412;-80
2023/05/18 01:54:28;;;;;;;7.78;3.35;;;;;;;;;;614277;23;1317;-79
2023/05/18 01:54:49;;;;;;;9.15;3.45;;;;;;;;;;616733;23;1434;-78
2023/05/18 01:55:16;;;;;;;9.88;3.78;;;;;;;;;;606465;24;1140;-78
2023/05/18 01:55:38;;;;;;;8.82;3.45;;;;;;;;;;605612;24;1136;-79
2023/05/18 01:55:56;;;;;;;8.52;3.30;;;;;;;;;;606026;24;1334;-79
2023/05/18 01:56:25;;;;;;;6.93;3.10;;;;;;;;;;600474;24;1234;-79
2023/05/18 01:56:42;;;;;;;7.25;3.15;;;;;;;;;;607721;24;1392;-77
2023/05/18 01:57:06;;;;;;;7.95;3.13;;;;;;;;;;609970;24;868;-78
2023/05/18 01:57:29;;;;;;;9.45;3.15;;;;;;;;;;608215;23;1400;-79
2023/05/18 01:57:48;;;;;;;8.75;2.97;;;;;;;;;;615628;23;1411;-78
2023/05/18 01:58:21;;;;;;;8.77;3.30;;;;;;;;;;617351;23;1407;-79
2023/05/18 01:58:43;;;;;;;8.80;3.10;;;;;;;;;;614868;23;1605;-79
2023/05/18 01:59:02;;;;;;;8.65;3.17;;;;;;;;;;612668;24;1297;-79
2023/05/18 01:59:27;;;;;;;8.50;3.42;;;;;;;;;;605488;24;1367;-79
2023/05/18 01:59:50;;;;;;;7.95;3.22;;;;;;;;;;613762;23;1273;-78
2023/05/18 02:00:19;;;;;;;9.02;3.28;;;;;;;;;;609089;24;1388;-79
2023/05/18 02:00:35;;;;;;;7.53;3.03;;;;;;;;;;610826;24;1394;-78
2023/05/18 02:00:51;;;;;;;8.05;3.00;;;;;;;;;;612589;24;813;-78
2023/05/18 02:01:14;;;;;;;9.15;3.20;;;;;;;;;;607691;23;1313;-79
2023/05/18 02:01:33;;;;;;;10.40;3.40;;;;;;;;;;612687;24;1416;-79
2023/05/18 02:01:56;;;;;;;9.52;3.17;;;;;;;;;;610392;24;1239;-79
2023/05/18 02:02:17;;;;;;;10.27;3.40;;;;;;;;;;601707;24;1923;-79
2023/05/18 02:02:48;;;;;;;9.63;3.33;;;;;;;;;;612418;24;1432;-78
2023/05/18 02:03:16;;;;;;;8.85;3.20;;;;;;;;;;610172;24;1161;-79
2023/05/18 02:03:32;;;;;;;9.30;3.35;;;;;;;;;;613273;23;1499;-79
2023/05/18 02:03:48;;;;;;;9.30;3.20;;;;;;;;;;611702;24;1440;-79
2023/05/18 02:04:18;;;;;;;8.45;3.13;;;;;;;;;;608679;24;1340;-79
2023/05/18 02:04:39;;;;;;;7.05;3.10;;;;;;;;;;604958;24;1331;-79
2023/05/18 02:04:55;;;;;;;7.50;3.00;;;;;;;;;;610851;24;904;-78
2023/05/18 02:05:11;;;;;;;7.63;2.78;;;;;;;;;;602851;24;1328;-78
2023/05/18 02:05:29;;;;;;;7.30;2.95;;;;;;;;;;610975;24;853;-78
2023/05/18 02:05:55;;;;;;;8.05;3.05;;;;;;;;;;614272;23;852;-79
2023/05/18 02:06:16;;;;;;;8.95;3.10;;;;;;;;;;611792;23;829;-79
2023/05/18 02:06:32;;;;;;;6.43;2.78;;;;;;;;;;615338;23;900;-78
2023/05/18 02:06:54;;;;;;;5.95;2.75;;;;;;;;;;616154;23;993;-79
2023/05/18 02:07:15;;;;;;;7.30;2.80;;;;;;;;;;607392;23;1172;-80
2023/05/18 02:07:31;;;;;;;8.27;3.10;;;;;;;;;;613965;24;1322;-79
2023/05/18 02:08:00;;;;;;;7.05;3.05;;;;;;;;;;613168;24;1278;-78
2023/05/18 02:08:18;;;;;;;8.48;2.90;;;;;;;;;;604836;24;1446;-78
2023/05/18 02:08:40;;;;;;;7.28;2.65;;;;;;;;;;607634;24;1265;-79
2023/05/18 02:08:56;;;;;;;8.25;3.00;;;;;;;;;;612272;24;820;-78
2023/05/18 02:09:17;;;;;;;9.00;3.30;;;;;;;;;;605136;24;1238;-77
2023/05/18 02:09:33;;;;;;;10.00;3.38;;;;;;;;;;611547;23;1069;-78
2023/05/18 02:09:49;;;;;;;8.55;3.28;;;;;;;;;;611847;24;1238;-78
2023/05/18 02:10:16;;;;;;;7.63;3.28;;;;;;;;;;604346;24;1350;-79
2023/05/18 02:10:32;;;;;;;9.18;3.35;;;;;;;;;;611258;24;1473;-79
2023/05/18 02:10:48;;;;;;;9.23;3.40;;;;;;;;;;608919;24;1274;-78
2023/05/18 02:11:16;;;;;;;8.73;3.38;;;;;;;;;;610652;24;1298;-78
2023/05/18 02:11:32;;;;;;;9.23;3.17;;;;;;;;;;615683;23;1199;-79
2023/05/18 02:11:51;;;;;;;9.30;3.03;;;;;;;;;;612958;24;1084;-79
2023/05/18 02:12:27;;;;;;;8.73;3.40;;;;;;;;;;609612;24;1468;-80
2023/05/18 02:12:52;;;;;;;;;;;;;;;;;;;;;
2023/05/18 02:13:17;;;;;;;9.07;3.30;;;;;;;;;;605579;24;1037;-78
2023/05/18 02:13:38;;;;;;;10.32;3.30;;;;;;;;;;612264;24;1343;-79
2023/05/18 02:13:54;;;;;;;10.43;3.30;;;;;;;;;;611771;24;1460;-78
2023/05/18 02:14:21;;;;;;;9.40;3.50;;;;;;;;;;608605;24;833;-79
2023/05/18 02:14:36;;;;;;;10.82;3.67;;;;;;;;;;611758;24;1431;-77
2023/05/18 02:14:54;;;;;;;10.02;3.50;;;;;;;;;;610500;24;1327;-80
2023/05/18 02:15:16;;;;;;;8.32;3.28;;;;;;;;;;607910;24;1485;-79
2023/05/18 02:15:37;;;;;;;8.10;3.20;;;;;;;;;;610784;24;1452;-78
2023/05/18 02:15:56;;;;;;;9.50;3.40;;;;;;;;;;617021;23;1072;-79
2023/05/18 02:16:18;;;;;;;10.00;3.38;;;;;;;;;;606246;23;947;-78
2023/05/18 02:16:36;;;;;;;8.48;3.10;;;;;;;;;;612353;23;1126;-78
2023/05/18 02:16:56;;;;;;;10.40;3.40;;;;;;;;;;615181;23;1369;-79
2023/05/18 02:17:24;;;;;;;9.75;3.40;;;;;;;;;;609738;23;813;-78
2023/05/18 02:17:43;;;;;;;8.50;3.30;;;;;;;;;;613917;24;1225;-78
2023/05/18 02:18:19;;;;;;;10.13;3.40;;;;;;;;;;612186;23;1404;-78
2023/05/18 02:18:35;;;;;;;9.77;3.60;;;;;;;;;;611294;24;1453;-78
2023/05/18 02:18:51;;;;;;;8.20;3.30;;;;;;;;;;611763;24;1652;-78
2023/05/18 02:19:24;;;;;;;6.72;3.10;;;;;;;;;;618404;23;1430;-79
2023/05/18 02:19:45;;;;;;;9.32;3.35;;;;;;;;;;619261;23;1269;-79
2023/05/18 02:20:31;;;;;;;9.48;3.42;;;;;;;;;;621956;23;1466;-79
2023/05/18 02:20:49;;;;;;;8.93;3.38;;;;;;;;;;622493;23;1412;-78
2023/05/18 02:21:12;;;;;;;8.50;3.40;;;;;;;;;;618911;23;1256;-78
2023/05/18 02:21:33;;;;;;;8.45;3.28;;;;;;;;;;621780;23;1012;-80
2023/05/18 02:21:58;;;;;;;8.70;3.20;;;;;;;;;;622754;23;1276;-77
2023/05/18 02:22:19;;;;;;;8.90;3.53;;;;;;;;;;619270;23;1972;-78
2023/05/18 02:22:35;;;;;;;9.52;3.58;;;;;;;;;;625392;23;874;-78
2023/05/18 02:22:57;;;;;;;10.77;3.42;;;;;;;;;;628052;23;979;-79
2023/05/18 02:23:18;;;;;;;9.40;3.28;;;;;;;;;;620533;23;1016;-80
2023/05/18 02:23:34;;;;;;;7.97;3.30;;;;;;;;;;628229;23;1355;-79
2023/05/18 02:23:49;;;;;;;8.20;3.40;;;;;;;;;;624665;23;1315;-79
2023/05/18 02:24:17;;;;;;;7.47;3.40;;;;;;;;;;624924;23;1249;-79
2023/05/18 02:24:36;;;;;;;8.20;3.20;;;;;;;;;;622218;23;1261;-80
2023/05/18 02:24:52;;;;;;;8.77;3.20;;;;;;;;;;619158;23;1399;-76
2023/05/18 02:25:11;;;;;;;7.82;3.20;;;;;;;;;;618270;23;1395;-79
2023/05/18 02:25:33;;;;;;;8.02;3.20;;;;;;;;;;618939;23;1344;-78
2023/05/18 02:26:16;;;;;;;7.60;3.05;;;;;;;;;;615508;23;1328;-78